sensor_id;sensor_type;location;lat;lon;timestamp;temperature;humidity
59651;DHT22;45954;49.768;8.636;2023-05-20T00:00:46;14.60;91.80
59651;DHT22;45954;49.768;8.636;2023-05-20T00:03:15;14.50;91.80
59651;DHT22;45954;49.768;8.636;2023-05-20T00:05:41;14.50;92.00
59651;DHT22;45954;49.768;8.636;2023-05-20T00:08:07;14.70;91.80
59651;DHT22;45954;49.768;8.636;2023-05-20T00:10:34;14.60;92.00
59651;DHT22;45954;49.768;8.636;2023-05-20T00:13:00;14.60;92.20
59651;DHT22;45954;49.768;8.636;2023-05-20T00:15:27;14.60;92.10
59651;DHT22;45954;49.768;8.636;2023-05-20T00:17:54;14.60;92.40
59651;DHT22;45954;49.768;8.636;2023-05-20T00:20:20;14.60;92.20
59651;DHT22;45954;49.768;8.636;2023-05-20T00:22:46;14.50;92.80
59651;DHT22;45954;49.768;8.636;2023-05-20T00:25:12;14.50;92.60
59651;DHT22;45954;49.768;8.636;2023-05-20T00:27:41;14.60;92.70
59651;DHT22;45954;49.768;8.636;2023-05-20T00:30:08;14.40;93.00
59651;DHT22;45954;49.768;8.636;2023-05-20T00:32:35;14.40;93.00
59651;DHT22;45954;49.768;8.636;2023-05-20T00:35:02;14.60;93.10
59651;DHT22;45954;49.768;8.636;2023-05-20T00:37:28;14.40;93.20
59651;DHT22;45954;49.768;8.636;2023-05-20T00:39:54;14.40;93.40
59651;DHT22;45954;49.768;8.636;2023-05-20T00:42:21;14.30;93.40
59651;DHT22;45954;49.768;8.636;2023-05-20T00:44:47;14.20;93.60
59651;DHT22;45954;49.768;8.636;2023-05-20T00:47:16;14.30;93.70
59651;DHT22;45954;49.768;8.636;2023-05-20T00:49:47;14.40;93.80
59651;DHT22;45954;49.768;8.636;2023-05-20T00:52:17;14.20;93.90
59651;DHT22;45954;49.768;8.636;2023-05-20T00:54:44;14.30;94.10
59651;DHT22;45954;49.768;8.636;2023-05-20T00:57:10;14.30;93.90
59651;DHT22;45954;49.768;8.636;2023-05-20T00:59:37;14.20;94.30
59651;DHT22;45954;49.768;8.636;2023-05-20T01:02:04;14.20;94.40
59651;DHT22;45954;49.768;8.636;2023-05-20T01:04:30;14.10;94.60
59651;DHT22;45954;49.768;8.636;2023-05-20T01:07:00;14.10;94.70
59651;DHT22;45954;49.768;8.636;2023-05-20T01:09:30;14.00;94.90
59651;DHT22;45954;49.768;8.636;2023-05-20T01:12:15;14.00;94.90
59651;DHT22;45954;49.768;8.636;2023-05-20T01:14:48;14.10;94.90
59651;DHT22;45954;49.768;8.636;2023-05-20T01:17:18;14.00;95.20
59651;DHT22;45954;49.768;8.636;2023-05-20T01:19:46;14.00;95.20
59651;DHT22;45954;49.768;8.636;2023-05-20T01:22:14;14.00;95.20
59651;DHT22;45954;49.768;8.636;2023-05-20T01:24:45;14.00;95.30
59651;DHT22;45954;49.768;8.636;2023-05-20T01:27:18;13.90;95.60
59651;DHT22;45954;49.768;8.636;2023-05-20T01:29:48;14.00;95.60
59651;DHT22;45954;49.768;8.636;2023-05-20T01:32:43;14.00;95.80
59651;DHT22;45954;49.768;8.636;2023-05-20T01:35:15;14.00;95.90
59651;DHT22;45954;49.768;8.636;2023-05-20T01:37:43;14.10;96.10
59651;DHT22;45954;49.768;8.636;2023-05-20T01:40:13;13.90;96.30
59651;DHT22;45954;49.768;8.636;2023-05-20T01:42:41;13.90;96.60
59651;DHT22;45954;49.768;8.636;2023-05-20T01:45:08;13.90;96.70
59651;DHT22;45954;49.768;8.636;2023-05-20T01:47:34;13.90;97.10
59651;DHT22;45954;49.768;8.636;2023-05-20T01:50:00;13.80;97.10
59651;DHT22;45954;49.768;8.636;2023-05-20T01:52:26;13.80;97.30
59651;DHT22;45954;49.768;8.636;2023-05-20T01:54:52;13.80;97.20
59651;DHT22;45954;49.768;8.636;2023-05-20T01:57:19;13.90;97.40
59651;DHT22;45954;49.768;8.636;2023-05-20T01:59:46;13.80;97.70
59651;DHT22;45954;49.768;8.636;2023-05-20T02:02:13;13.60;98.30
59651;DHT22;45954;49.768;8.636;2023-05-20T02:04:39;13.70;98.20
59651;DHT22;45954;49.768;8.636;2023-05-20T02:07:07;13.60;98.40
59651;DHT22;45954;49.768;8.636;2023-05-20T02:09:33;13.30;98.90
59651;DHT22;45954;49.768;8.636;2023-05-20T02:11:59;13.40;99.00
59651;DHT22;45954;49.768;8.636;2023-05-20T02:14:25;13.40;98.90
59651;DHT22;45954;49.768;8.636;2023-05-20T02:16:51;13.30;99.30
59651;DHT22;45954;49.768;8.636;2023-05-20T02:19:17;13.30;99.50
59651;DHT22;45954;49.768;8.636;2023-05-20T02:21:49;13.10;99.90
59651;DHT22;45954;49.768;8.636;2023-05-20T02:24:15;13.10;99.90
59651;DHT22;45954;49.768;8.636;2023-05-20T02:26:41;13.00;99.90
59651;DHT22;45954;49.768;8.636;2023-05-20T02:29:09;12.90;99.90
59651;DHT22;45954;49.768;8.636;2023-05-20T02:31:34;12.90;99.90
59651;DHT22;45954;49.768;8.636;2023-05-20T02:34:00;13.00;99.90
59651;DHT22;45954;49.768;8.636;2023-05-20T02:36:26;12.70;99.90
59651;DHT22;45954;49.768;8.636;2023-05-20T02:38:52;12.40;99.90
59651;DHT22;45954;49.768;8.636;2023-05-20T02:41:21;12.00;99.90
59651;DHT22;45954;49.768;8.636;2023-05-20T02:43:47;11.90;99.90
59651;DHT22;45954;49.768;8.636;2023-05-20T02:46:13;11.90;99.90
59651;DHT22;45954;49.768;8.636;2023-05-20T02:48:40;11.90;99.90
59651;DHT22;45954;49.768;8.636;2023-05-20T02:51:06;11.90;99.90
59651;DHT22;45954;49.768;8.636;2023-05-20T02:53:32;11.90;99.90
59651;DHT22;45954;49.768;8.636;2023-05-20T02:55:57;12.00;99.90
59651;DHT22;45954;49.768;8.636;2023-05-20T02:58:24;12.10;99.90
59651;DHT22;45954;49.768;8.636;2023-05-20T03:00:51;12.20;99.90
59651;DHT22;45954;49.768;8.636;2023-05-20T03:03:17;12.30;99.90
59651;DHT22;45954;49.768;8.636;2023-05-20T03:05:43;12.40;99.90
59651;DHT22;45954;49.768;8.636;2023-05-20T03:08:11;12.50;99.90
59651;DHT22;45954;49.768;8.636;2023-05-20T03:10:38;12.50;99.90
59651;DHT22;45954;49.768;8.636;2023-05-20T03:13:05;12.30;99.90
59651;DHT22;45954;49.768;8.636;2023-05-20T03:15:34;12.30;99.90
59651;DHT22;45954;49.768;8.636;2023-05-20T03:18:03;12.10;99.90
59651;DHT22;45954;49.768;8.636;2023-05-20T03:20:30;12.10;99.90
59651;DHT22;45954;49.768;8.636;2023-05-20T03:22:57;12.10;99.90
59651;DHT22;45954;49.768;8.636;2023-05-20T03:25:24;12.10;99.90
59651;DHT22;45954;49.768;8.636;2023-05-20T03:27:50;12.20;99.90
59651;DHT22;45954;49.768;8.636;2023-05-20T03:30:16;12.20;99.90
59651;DHT22;45954;49.768;8.636;2023-05-20T03:32:42;12.00;99.90
59651;DHT22;45954;49.768;8.636;2023-05-20T03:35:08;11.90;99.90
59651;DHT22;45954;49.768;8.636;2023-05-20T03:37:35;12.00;99.90
59651;DHT22;45954;49.768;8.636;2023-05-20T03:40:01;11.90;99.90
59651;DHT22;45954;49.768;8.636;2023-05-20T03:42:33;11.90;99.90
59651;DHT22;45954;49.768;8.636;2023-05-20T03:44:59;12.00;99.90
59651;DHT22;45954;49.768;8.636;2023-05-20T03:47:26;11.90;99.90
59651;DHT22;45954;49.768;8.636;2023-05-20T03:49:52;11.90;99.90
59651;DHT22;45954;49.768;8.636;2023-05-20T03:52:18;12.10;99.90
59651;DHT22;45954;49.768;8.636;2023-05-20T03:54:44;12.00;99.90
59651;DHT22;45954;49.768;8.636;2023-05-20T03:57:10;12.00;99.90
59651;DHT22;45954;49.768;8.636;2023-05-20T03:59:36;12.00;99.90
59651;DHT22;45954;49.768;8.636;2023-05-20T04:02:04;12.10;99.90
59651;DHT22;45954;49.768;8.636;2023-05-20T04:04:30;12.20;99.90
59651;DHT22;45954;49.768;8.636;2023-05-20T04:06:58;12.20;99.90
59651;DHT22;45954;49.768;8.636;2023-05-20T04:09:27;12.40;99.90
59651;DHT22;45954;49.768;8.636;2023-05-20T04:11:53;12.50;99.90
59651;DHT22;45954;49.768;8.636;2023-05-20T04:14:19;12.60;99.90
59651;DHT22;45954;49.768;8.636;2023-05-20T04:16:45;12.50;99.90
59651;DHT22;45954;49.768;8.636;2023-05-20T04:19:11;12.50;99.90
59651;DHT22;45954;49.768;8.636;2023-05-20T04:21:37;12.40;99.90
59651;DHT22;45954;49.768;8.636;2023-05-20T04:24:04;12.30;99.90
59651;DHT22;45954;49.768;8.636;2023-05-20T04:26:30;12.50;99.90
59651;DHT22;45954;49.768;8.636;2023-05-20T04:28:56;12.40;99.90
59651;DHT22;45954;49.768;8.636;2023-05-20T04:31:24;12.40;99.90
59651;DHT22;45954;49.768;8.636;2023-05-20T04:33:53;12.50;99.90
59651;DHT22;45954;49.768;8.636;2023-05-20T04:36:19;12.50;99.90
59651;DHT22;45954;49.768;8.636;2023-05-20T04:38:45;12.50;99.90
59651;DHT22;45954;49.768;8.636;2023-05-20T04:41:12;12.60;99.90
59651;DHT22;45954;49.768;8.636;2023-05-20T04:43:40;12.70;99.90
59651;DHT22;45954;49.768;8.636;2023-05-20T04:46:07;12.60;99.90
59651;DHT22;45954;49.768;8.636;2023-05-20T04:48:34;12.60;99.90
59651;DHT22;45954;49.768;8.636;2023-05-20T04:51:00;12.70;99.90
59651;DHT22;45954;49.768;8.636;2023-05-20T04:53:26;12.60;99.90
59651;DHT22;45954;49.768;8.636;2023-05-20T04:55:55;12.70;99.90
59651;DHT22;45954;49.768;8.636;2023-05-20T04:58:22;12.90;99.90
59651;DHT22;45954;49.768;8.636;2023-05-20T05:00:51;13.10;99.90
59651;DHT22;45954;49.768;8.636;2023-05-20T05:03:18;13.00;99.90
59651;DHT22;45954;49.768;8.636;2023-05-20T05:05:43;13.20;99.90
59651;DHT22;45954;49.768;8.636;2023-05-20T05:08:09;13.50;99.90
59651;DHT22;45954;49.768;8.636;2023-05-20T05:10:39;13.60;99.90
59651;DHT22;45954;49.768;8.636;2023-05-20T05:13:05;13.90;99.90
59651;DHT22;45954;49.768;8.636;2023-05-20T05:15:31;14.20;99.90
59651;DHT22;45954;49.768;8.636;2023-05-20T05:17:56;14.40;99.90
59651;DHT22;45954;49.768;8.636;2023-05-20T05:20:22;14.40;99.90
59651;DHT22;45954;49.768;8.636;2023-05-20T05:22:48;14.50;99.90
59651;DHT22;45954;49.768;8.636;2023-05-20T05:25:15;14.70;99.90
59651;DHT22;45954;49.768;8.636;2023-05-20T05:27:42;14.70;99.90
59651;DHT22;45954;49.768;8.636;2023-05-20T05:30:09;14.70;99.90
59651;DHT22;45954;49.768;8.636;2023-05-20T05:32:36;14.70;99.90
59651;DHT22;45954;49.768;8.636;2023-05-20T05:35:03;14.80;99.90
59651;DHT22;45954;49.768;8.636;2023-05-20T05:37:29;15.00;99.90
59651;DHT22;45954;49.768;8.636;2023-05-20T05:39:55;15.10;99.90
59651;DHT22;45954;49.768;8.636;2023-05-20T05:42:21;15.20;99.90
59651;DHT22;45954;49.768;8.636;2023-05-20T05:44:47;15.30;99.90
59651;DHT22;45954;49.768;8.636;2023-05-20T05:47:13;15.30;99.90
59651;DHT22;45954;49.768;8.636;2023-05-20T05:49:39;15.40;99.90
59651;DHT22;45954;49.768;8.636;2023-05-20T05:52:05;15.50;99.90
59651;DHT22;45954;49.768;8.636;2023-05-20T05:54:31;15.50;99.90
59651;DHT22;45954;49.768;8.636;2023-05-20T05:56:57;15.60;99.90
59651;DHT22;45954;49.768;8.636;2023-05-20T05:59:23;15.50;99.90
59651;DHT22;45954;49.768;8.636;2023-05-20T06:01:49;15.50;99.90
59651;DHT22;45954;49.768;8.636;2023-05-20T06:04:14;15.50;99.90
59651;DHT22;45954;49.768;8.636;2023-05-20T06:06:40;15.40;99.90
59651;DHT22;45954;49.768;8.636;2023-05-20T06:09:06;15.40;99.90
59651;DHT22;45954;49.768;8.636;2023-05-20T06:11:32;15.50;99.90
59651;DHT22;45954;49.768;8.636;2023-05-20T06:13:58;15.50;99.90
59651;DHT22;45954;49.768;8.636;2023-05-20T06:16:24;15.60;99.90
59651;DHT22;45954;49.768;8.636;2023-05-20T06:18:50;15.50;99.90
59651;DHT22;45954;49.768;8.636;2023-05-20T06:21:17;15.60;99.90
59651;DHT22;45954;49.768;8.636;2023-05-20T06:23:43;15.60;99.90
59651;DHT22;45954;49.768;8.636;2023-05-20T06:26:09;15.70;99.90
59651;DHT22;45954;49.768;8.636;2023-05-20T06:28:35;15.70;99.90
59651;DHT22;45954;49.768;8.636;2023-05-20T06:31:01;15.80;99.90
59651;DHT22;45954;49.768;8.636;2023-05-20T06:33:27;15.80;99.90
59651;DHT22;45954;49.768;8.636;2023-05-20T06:35:55;15.70;99.90
59651;DHT22;45954;49.768;8.636;2023-05-20T06:38:23;15.80;99.90
59651;DHT22;45954;49.768;8.636;2023-05-20T06:40:49;15.90;99.90
59651;DHT22;45954;49.768;8.636;2023-05-20T06:43:16;15.90;99.90
59651;DHT22;45954;49.768;8.636;2023-05-20T06:45:42;15.90;99.90
59651;DHT22;45954;49.768;8.636;2023-05-20T06:48:09;15.90;99.90
59651;DHT22;45954;49.768;8.636;2023-05-20T06:50:35;15.90;99.90
59651;DHT22;45954;49.768;8.636;2023-05-20T06:53:01;15.90;99.90
59651;DHT22;45954;49.768;8.636;2023-05-20T06:55:27;16.00;99.90
59651;DHT22;45954;49.768;8.636;2023-05-20T06:57:53;16.00;99.90
59651;DHT22;45954;49.768;8.636;2023-05-20T07:00:19;16.20;99.90
59651;DHT22;45954;49.768;8.636;2023-05-20T07:02:45;16.30;99.90
59651;DHT22;45954;49.768;8.636;2023-05-20T07:05:11;16.20;99.90
59651;DHT22;45954;49.768;8.636;2023-05-20T07:07:37;16.40;99.90
59651;DHT22;45954;49.768;8.636;2023-05-20T07:10:04;16.30;99.90
59651;DHT22;45954;49.768;8.636;2023-05-20T07:12:31;16.40;99.90
59651;DHT22;45954;49.768;8.636;2023-05-20T07:14:57;16.50;99.90
59651;DHT22;45954;49.768;8.636;2023-05-20T07:17:24;16.50;99.90
59651;DHT22;45954;49.768;8.636;2023-05-20T07:19:50;16.50;99.90
59651;DHT22;45954;49.768;8.636;2023-05-20T07:22:17;16.50;99.90
59651;DHT22;45954;49.768;8.636;2023-05-20T07:24:42;16.60;99.90
59651;DHT22;45954;49.768;8.636;2023-05-20T07:27:10;16.70;99.90
59651;DHT22;45954;49.768;8.636;2023-05-20T07:29:36;16.80;99.90
59651;DHT22;45954;49.768;8.636;2023-05-20T07:32:03;17.00;99.90
59651;DHT22;45954;49.768;8.636;2023-05-20T07:34:30;17.10;99.90
59651;DHT22;45954;49.768;8.636;2023-05-20T07:36:57;17.10;99.90
59651;DHT22;45954;49.768;8.636;2023-05-20T07:39:23;17.30;99.90
59651;DHT22;45954;49.768;8.636;2023-05-20T07:41:49;17.20;99.90
59651;DHT22;45954;49.768;8.636;2023-05-20T07:44:15;17.20;99.90
59651;DHT22;45954;49.768;8.636;2023-05-20T07:46:43;17.30;99.90
59651;DHT22;45954;49.768;8.636;2023-05-20T07:49:10;17.40;99.90
59651;DHT22;45954;49.768;8.636;2023-05-20T07:51:36;17.50;99.90
59651;DHT22;45954;49.768;8.636;2023-05-20T07:54:02;17.70;99.90
59651;DHT22;45954;49.768;8.636;2023-05-20T07:56:28;17.70;99.90
59651;DHT22;45954;49.768;8.636;2023-05-20T07:58:58;17.80;99.90
59651;DHT22;45954;49.768;8.636;2023-05-20T08:01:25;18.00;99.90
59651;DHT22;45954;49.768;8.636;2023-05-20T08:03:52;18.20;99.90
59651;DHT22;45954;49.768;8.636;2023-05-20T08:06:19;18.50;99.90
59651;DHT22;45954;49.768;8.636;2023-05-20T08:08:46;18.60;99.70
59651;DHT22;45954;49.768;8.636;2023-05-20T08:11:12;18.60;99.90
59651;DHT22;45954;49.768;8.636;2023-05-20T08:13:39;18.70;99.90
59651;DHT22;45954;49.768;8.636;2023-05-20T08:16:05;18.80;99.90
59651;DHT22;45954;49.768;8.636;2023-05-20T08:18:33;19.00;99.80
59651;DHT22;45954;49.768;8.636;2023-05-20T08:21:01;19.00;99.90
59651;DHT22;45954;49.768;8.636;2023-05-20T08:23:27;19.20;99.50
59651;DHT22;45954;49.768;8.636;2023-05-20T08:25:52;19.60;99.80
59651;DHT22;45954;49.768;8.636;2023-05-20T08:28:18;19.90;98.80
59651;DHT22;45954;49.768;8.636;2023-05-20T08:30:45;20.20;98.30
59651;DHT22;45954;49.768;8.636;2023-05-20T08:33:12;20.30;97.80
59651;DHT22;45954;49.768;8.636;2023-05-20T08:35:38;20.30;97.90
59651;DHT22;45954;49.768;8.636;2023-05-20T08:38:05;20.40;98.00
59651;DHT22;45954;49.768;8.636;2023-05-20T08:40:34;20.30;98.20
59651;DHT22;45954;49.768;8.636;2023-05-20T08:43:01;20.70;97.80
59651;DHT22;45954;49.768;8.636;2023-05-20T08:45:32;20.60;97.30
59651;DHT22;45954;49.768;8.636;2023-05-20T08:47:59;20.30;96.70
59651;DHT22;45954;49.768;8.636;2023-05-20T08:50:26;20.00;96.90
59651;DHT22;45954;49.768;8.636;2023-05-20T08:52:52;20.00;97.30
59651;DHT22;45954;49.768;8.636;2023-05-20T08:55:24;20.00;97.80
59651;DHT22;45954;49.768;8.636;2023-05-20T08:57:55;20.00;97.30
59651;DHT22;45954;49.768;8.636;2023-05-20T09:00:22;20.30;97.10
59651;DHT22;45954;49.768;8.636;2023-05-20T09:02:54;20.40;97.10
59651;DHT22;45954;49.768;8.636;2023-05-20T09:05:21;20.20;97.50
59651;DHT22;45954;49.768;8.636;2023-05-20T09:07:48;20.20;97.60
59651;DHT22;45954;49.768;8.636;2023-05-20T09:10:14;19.90;97.20
59651;DHT22;45954;49.768;8.636;2023-05-20T09:12:41;19.80;97.20
59651;DHT22;45954;49.768;8.636;2023-05-20T09:15:07;20.10;97.70
59651;DHT22;45954;49.768;8.636;2023-05-20T09:17:37;20.60;97.90
59651;DHT22;45954;49.768;8.636;2023-05-20T09:20:08;20.80;97.30
59651;DHT22;45954;49.768;8.636;2023-05-20T09:22:35;20.90;96.70
59651;DHT22;45954;49.768;8.636;2023-05-20T09:25:03;20.80;96.90
59651;DHT22;45954;49.768;8.636;2023-05-20T09:27:30;21.00;97.10
59651;DHT22;45954;49.768;8.636;2023-05-20T09:29:55;21.30;96.00
59651;DHT22;45954;49.768;8.636;2023-05-20T09:32:21;21.40;96.80
59651;DHT22;45954;49.768;8.636;2023-05-20T09:34:51;21.50;96.30
59651;DHT22;45954;49.768;8.636;2023-05-20T09:37:17;21.70;96.00
59651;DHT22;45954;49.768;8.636;2023-05-20T09:39:55;21.70;96.20
59651;DHT22;45954;49.768;8.636;2023-05-20T09:42:43;21.80;95.70
59651;DHT22;45954;49.768;8.636;2023-05-20T09:45:25;21.80;95.60
59651;DHT22;45954;49.768;8.636;2023-05-20T09:47:51;21.60;95.20
59651;DHT22;45954;49.768;8.636;2023-05-20T09:50:19;21.80;95.60
59651;DHT22;45954;49.768;8.636;2023-05-20T09:52:47;21.90;95.30
59651;DHT22;45954;49.768;8.636;2023-05-20T09:55:16;21.80;95.00
59651;DHT22;45954;49.768;8.636;2023-05-20T09:57:44;21.90;95.40
59651;DHT22;45954;49.768;8.636;2023-05-20T10:00:11;22.10;95.10
59651;DHT22;45954;49.768;8.636;2023-05-20T10:02:50;22.10;93.90
59651;DHT22;45954;49.768;8.636;2023-05-20T10:05:20;22.20;94.40
59651;DHT22;45954;49.768;8.636;2023-05-20T10:19:57;22.50;94.20
59651;DHT22;45954;49.768;8.636;2023-05-20T10:22:28;22.80;93.50
59651;DHT22;45954;49.768;8.636;2023-05-20T10:25:03;22.80;93.30
59651;DHT22;45954;49.768;8.636;2023-05-20T10:27:42;23.00;93.40
59651;DHT22;45954;49.768;8.636;2023-05-20T10:30:19;22.90;93.60
59651;DHT22;45954;49.768;8.636;2023-05-20T10:33:05;22.90;92.80
59651;DHT22;45954;49.768;8.636;2023-05-20T10:35:32;23.00;93.20
59651;DHT22;45954;49.768;8.636;2023-05-20T10:38:11;23.00;93.10
59651;DHT22;45954;49.768;8.636;2023-05-20T10:40:37;23.10;92.80
59651;DHT22;45954;49.768;8.636;2023-05-20T10:43:14;22.90;92.70
59651;DHT22;45954;49.768;8.636;2023-05-20T10:46:00;22.90;92.60
59651;DHT22;45954;49.768;8.636;2023-05-20T10:48:29;23.00;92.30
59651;DHT22;45954;49.768;8.636;2023-05-20T10:51:01;23.50;91.80
59651;DHT22;45954;49.768;8.636;2023-05-20T10:53:40;23.60;91.80
59651;DHT22;45954;49.768;8.636;2023-05-20T10:56:18;23.80;91.70
59651;DHT22;45954;49.768;8.636;2023-05-20T10:58:47;23.70;91.60
59651;DHT22;45954;49.768;8.636;2023-05-20T11:01:14;24.10;91.20
59651;DHT22;45954;49.768;8.636;2023-05-20T11:03:42;24.40;90.80
59651;DHT22;45954;49.768;8.636;2023-05-20T11:06:17;24.50;91.60
59651;DHT22;45954;49.768;8.636;2023-05-20T11:08:44;24.60;91.40
59651;DHT22;45954;49.768;8.636;2023-05-20T11:11:12;24.30;91.60
59651;DHT22;45954;49.768;8.636;2023-05-20T11:13:39;23.90;91.30
59651;DHT22;45954;49.768;8.636;2023-05-20T11:16:05;24.10;90.80
59651;DHT22;45954;49.768;8.636;2023-05-20T11:18:31;24.80;90.70
59651;DHT22;45954;49.768;8.636;2023-05-20T11:20:58;24.80;90.50
59651;DHT22;45954;49.768;8.636;2023-05-20T11:23:26;24.90;90.70
59651;DHT22;45954;49.768;8.636;2023-05-20T11:25:54;25.30;90.30
59651;DHT22;45954;49.768;8.636;2023-05-20T11:28:22;25.20;90.30
59651;DHT22;45954;49.768;8.636;2023-05-20T11:30:50;25.00;90.00
59651;DHT22;45954;49.768;8.636;2023-05-20T11:33:17;24.50;90.90
59651;DHT22;45954;49.768;8.636;2023-05-20T11:35:46;24.40;91.00
59651;DHT22;45954;49.768;8.636;2023-05-20T11:38:14;24.70;90.90
59651;DHT22;45954;49.768;8.636;2023-05-20T11:40:51;24.80;90.60
59651;DHT22;45954;49.768;8.636;2023-05-20T11:43:19;24.60;90.60
59651;DHT22;45954;49.768;8.636;2023-05-20T11:45:56;24.80;90.80
59651;DHT22;45954;49.768;8.636;2023-05-20T11:48:26;24.80;90.30
59651;DHT22;45954;49.768;8.636;2023-05-20T11:50:54;25.00;90.20
59651;DHT22;45954;49.768;8.636;2023-05-20T11:53:22;24.50;90.40
59651;DHT22;45954;49.768;8.636;2023-05-20T11:55:57;24.00;90.60
59651;DHT22;45954;49.768;8.636;2023-05-20T11:58:26;23.80;90.80
59651;DHT22;45954;49.768;8.636;2023-05-20T12:00:54;24.20;90.70
59651;DHT22;45954;49.768;8.636;2023-05-20T12:03:20;24.40;90.60
59651;DHT22;45954;49.768;8.636;2023-05-20T12:05:47;25.00;90.00
59651;DHT22;45954;49.768;8.636;2023-05-20T12:08:14;24.80;90.60
59651;DHT22;45954;49.768;8.636;2023-05-20T12:10:40;25.00;89.90
59651;DHT22;45954;49.768;8.636;2023-05-20T12:13:06;25.00;89.30
59651;DHT22;45954;49.768;8.636;2023-05-20T12:15:38;24.80;88.50
59651;DHT22;45954;49.768;8.636;2023-05-20T12:18:04;25.20;88.60
59651;DHT22;45954;49.768;8.636;2023-05-20T12:20:30;25.50;88.40
59651;DHT22;45954;49.768;8.636;2023-05-20T12:22:59;25.30;89.30
59651;DHT22;45954;49.768;8.636;2023-05-20T12:25:26;25.80;88.30
59651;DHT22;45954;49.768;8.636;2023-05-20T12:27:52;26.20;86.60
59651;DHT22;45954;49.768;8.636;2023-05-20T12:30:20;25.70;88.50
59651;DHT22;45954;49.768;8.636;2023-05-20T12:32:47;25.90;88.40
59651;DHT22;45954;49.768;8.636;2023-05-20T12:35:38;25.80;88.00
59651;DHT22;45954;49.768;8.636;2023-05-20T12:38:05;26.00;87.30
59651;DHT22;45954;49.768;8.636;2023-05-20T12:40:32;25.80;87.80
59651;DHT22;45954;49.768;8.636;2023-05-20T12:43:00;25.60;87.00
59651;DHT22;45954;49.768;8.636;2023-05-20T12:45:27;25.00;88.20
59651;DHT22;45954;49.768;8.636;2023-05-20T12:47:56;25.20;87.90
59651;DHT22;45954;49.768;8.636;2023-05-20T12:50:23;25.60;88.00
59651;DHT22;45954;49.768;8.636;2023-05-20T12:52:50;25.50;87.10
59651;DHT22;45954;49.768;8.636;2023-05-20T12:55:16;25.80;86.70
59651;DHT22;45954;49.768;8.636;2023-05-20T12:57:43;25.70;87.30
59651;DHT22;45954;49.768;8.636;2023-05-20T13:00:11;25.30;87.40
59651;DHT22;45954;49.768;8.636;2023-05-20T13:02:38;24.80;87.50
59651;DHT22;45954;49.768;8.636;2023-05-20T13:05:05;24.60;89.50
59651;DHT22;45954;49.768;8.636;2023-05-20T13:07:31;24.80;87.80
59651;DHT22;45954;49.768;8.636;2023-05-20T13:09:58;24.40;88.50
59651;DHT22;45954;49.768;8.636;2023-05-20T13:12:24;24.00;88.50
59651;DHT22;45954;49.768;8.636;2023-05-20T13:14:50;23.70;90.10
59651;DHT22;45954;49.768;8.636;2023-05-20T13:17:17;23.90;90.20
59651;DHT22;45954;49.768;8.636;2023-05-20T13:19:43;24.40;88.50
59651;DHT22;45954;49.768;8.636;2023-05-20T13:22:11;24.70;88.20
59651;DHT22;45954;49.768;8.636;2023-05-20T13:24:37;24.80;87.60
59651;DHT22;45954;49.768;8.636;2023-05-20T13:27:04;24.80;88.20
59651;DHT22;45954;49.768;8.636;2023-05-20T13:29:30;25.10;88.00
59651;DHT22;45954;49.768;8.636;2023-05-20T13:31:57;25.80;86.00
59651;DHT22;45954;49.768;8.636;2023-05-20T13:34:24;26.00;85.20
59651;DHT22;45954;49.768;8.636;2023-05-20T13:36:50;26.00;85.50
59651;DHT22;45954;49.768;8.636;2023-05-20T13:39:15;25.80;85.30
59651;DHT22;45954;49.768;8.636;2023-05-20T13:41:42;25.80;86.30
59651;DHT22;45954;49.768;8.636;2023-05-20T13:44:08;25.30;86.40
59651;DHT22;45954;49.768;8.636;2023-05-20T13:46:34;24.70;87.30
59651;DHT22;45954;49.768;8.636;2023-05-20T13:49:00;24.50;87.90
59651;DHT22;45954;49.768;8.636;2023-05-20T13:51:26;25.10;88.80
59651;DHT22;45954;49.768;8.636;2023-05-20T13:53:52;25.80;87.80
59651;DHT22;45954;49.768;8.636;2023-05-20T13:56:18;25.90;86.40
59651;DHT22;45954;49.768;8.636;2023-05-20T13:58:44;25.50;85.90
59651;DHT22;45954;49.768;8.636;2023-05-20T14:01:10;24.80;88.10
59651;DHT22;45954;49.768;8.636;2023-05-20T14:03:37;24.30;88.70
59651;DHT22;45954;49.768;8.636;2023-05-20T14:06:05;24.20;89.60
59651;DHT22;45954;49.768;8.636;2023-05-20T14:08:31;24.40;88.80
59651;DHT22;45954;49.768;8.636;2023-05-20T14:10:57;25.00;88.60
59651;DHT22;45954;49.768;8.636;2023-05-20T14:13:24;25.60;87.70
59651;DHT22;45954;49.768;8.636;2023-05-20T14:15:51;26.10;87.60
59651;DHT22;45954;49.768;8.636;2023-05-20T14:18:19;26.60;86.80
59651;DHT22;45954;49.768;8.636;2023-05-20T14:20:46;26.70;86.50
59651;DHT22;45954;49.768;8.636;2023-05-20T14:23:12;26.80;85.10
59651;DHT22;45954;49.768;8.636;2023-05-20T14:25:38;26.40;86.40
59651;DHT22;45954;49.768;8.636;2023-05-20T14:28:05;26.60;85.50
59651;DHT22;45954;49.768;8.636;2023-05-20T14:30:31;26.70;85.30
59651;DHT22;45954;49.768;8.636;2023-05-20T14:32:57;27.00;85.40
59651;DHT22;45954;49.768;8.636;2023-05-20T14:35:23;27.70;84.00
59651;DHT22;45954;49.768;8.636;2023-05-20T14:37:48;27.80;83.00
59651;DHT22;45954;49.768;8.636;2023-05-20T14:40:14;27.90;83.20
59651;DHT22;45954;49.768;8.636;2023-05-20T14:42:41;28.30;82.40
59651;DHT22;45954;49.768;8.636;2023-05-20T14:45:07;27.90;82.10
59651;DHT22;45954;49.768;8.636;2023-05-20T14:47:34;27.30;82.80
59651;DHT22;45954;49.768;8.636;2023-05-20T14:50:00;27.40;82.90
59651;DHT22;45954;49.768;8.636;2023-05-20T14:52:25;26.80;83.30
59651;DHT22;45954;49.768;8.636;2023-05-20T14:54:51;26.60;83.60
59651;DHT22;45954;49.768;8.636;2023-05-20T14:57:17;26.70;84.30
59651;DHT22;45954;49.768;8.636;2023-05-20T14:59:43;26.80;84.20
59651;DHT22;45954;49.768;8.636;2023-05-20T15:02:09;26.80;84.00
59651;DHT22;45954;49.768;8.636;2023-05-20T15:04:35;26.80;83.70
59651;DHT22;45954;49.768;8.636;2023-05-20T15:07:01;26.60;84.20
59651;DHT22;45954;49.768;8.636;2023-05-20T15:09:27;27.40;83.80
59651;DHT22;45954;49.768;8.636;2023-05-20T15:11:53;27.60;83.40
59651;DHT22;45954;49.768;8.636;2023-05-20T15:14:19;27.20;82.20
59651;DHT22;45954;49.768;8.636;2023-05-20T15:16:45;27.20;83.30
59651;DHT22;45954;49.768;8.636;2023-05-20T15:19:14;27.30;83.10
59651;DHT22;45954;49.768;8.636;2023-05-20T15:21:40;27.60;82.50
59651;DHT22;45954;49.768;8.636;2023-05-20T15:24:06;27.60;82.00
59651;DHT22;45954;49.768;8.636;2023-05-20T15:26:32;27.40;82.40
59651;DHT22;45954;49.768;8.636;2023-05-20T15:28:58;26.90;82.50
59651;DHT22;45954;49.768;8.636;2023-05-20T15:31:24;27.30;82.30
59651;DHT22;45954;49.768;8.636;2023-05-20T15:33:50;27.10;83.30
59651;DHT22;45954;49.768;8.636;2023-05-20T15:36:16;26.60;84.10
59651;DHT22;45954;49.768;8.636;2023-05-20T15:38:42;26.50;83.70
59651;DHT22;45954;49.768;8.636;2023-05-20T15:41:09;26.40;83.60
59651;DHT22;45954;49.768;8.636;2023-05-20T15:43:38;26.10;84.10